OEMA/MED METAR and TAF weather

Enter ICAO airport designator
Station Type Date Time Source
OEMA METAR 2021/07/28 19:00 UTC NOAA

OEMA 281900Z 28007KT 9999 SCT040 39/13 Q1006 NOSIG


Station Type Date Time Source
OEMA Decoded METAR 2021/07/28 19:00 UTC NOAA

Madinah, Saudi Arabia (OEMA) 24-33N 039-42E 636M
Jul 28, 2021 - 03:00 PM EDT / 2021.07.28 1900 UTC
Wind: from the W (280 degrees) at 8 MPH (7 KT):0
Visibility: greater than 7 mile(s):0
Sky conditions: partly cloudy
Temperature: 102 F (39 C)
Heat index: 100.6 F (38.1 C):1
Dew Point: 55 F (13 C)
Relative Humidity: 21%
Pressure (altimeter): 29.71 in. Hg (1006 hPa)
ob: OEMA 281900Z 28007KT 9999 SCT040 39/13 Q1006 NOSIG
cycle: 19

Station Type Date Time Source
OEMA TAF 2021/07/28 18:33 UTC NOAA

TAF OEMA 281800Z 2818/2924 30008KT 9999 SCT045 SCT100
BECMG 2908/2910 28014KT PROB30
TEMPO 2910/2916 6000 FEW035CB

Example: see airport list